East Dennis, MA (02641)

2:44 AM EDT on April 25, 2015 (GMT -0400)
Hazelwood Road | | Change Station
CLOSE
Current Station
Personal Weather Station
Location: South Dennis, MA
Elevation: 41 ft
Nearby Weather Stations

Elev 41 ft 41.71 °N, 70.18 °W | Updated 3 minutes ago

Overcast
Overcast
39.1 °F
Feels Like 39 °F
N
3.0
Wind Variable Wind from WNW
Gusts 8.0 mph

Today
High -- | Low -- °F
--% Chance of Precip.
Yesterday
High -- | Low -- °F
Precip. -- in
5:45 AM 7:32 PM
Waxing Crescent, 43% visible
Pressure 29.76 in
Visibility 10.0 miles
Clouds Overcast 5000 ft
Windchill 39 °F
Dew Point 29 °F
Humidity 68%
Rainfall 0.00 in
Snow Depth Not available.
UV 0.0 out of 12
Pollen 10.30 out of 12
Air Quality Not available.
Flu Activity Widespread
METAR KHYA 250556Z AUTO 29006KT 10SM OVC050 04/M04 A2975 RMK AO2 SLP076 T00391044 10072 20039 58002

More Conditions Fewer Conditions

Pressure 29.76 in
Visibility 10.0 miles
Clouds Overcast 5000 ft
Windchill 39 °F
Dew Point 29 °F
Humidity 68%
Rainfall 0.00 in
Snow Depth Not available.
UV 0.0 out of 12
Pollen 10.30 out of 12
Air Quality Not available.
Flu Activity Widespread
METAR KHYA 250556Z AUTO 29006KT 10SM OVC050 04/M04 A2975 RMK AO2 SLP076 T00391044 10072 20039 58002

More Conditions Fewer Conditions

10-Day Weather Forecast

Almanac

Astronomy

Apr. 25, 2015 Rise Set
Actual Time
Civil Twilight
Nautical Twilight
Astronomical Twilight
Moon
Length of Visible Light
Length of Day
Tomorrow will be .
, % of the Moon is Illuminated

Today's Extremes

State Highs State Lows

Community

WunderPhotos

Upload Photos

1,816,624 photos uploaded!

WunderBlogs® & News

Nearby

Air Quality

  Air Quality AQ Index Pollutant
Not available.

Snow Depth

Station Depth Elevation

Earthquake Activity

City Distance Mag. Time & Date
Minimum magnitude displayed is 2.5.

Coastal Water Temperatures

Place Temperature

Stations

Nearby Weather Stations

Station Location Temp. Windchill Dew Point Humidity Wind Precip. Elev Updated Type